GP Svizzera

MXGP. Un grande Cairoli si aggiudica la qualifica in Svizzera. Prado in MX2

- Il messinese si aggiudica la qualifica MXGP mentre Herlings cade alla partenza e termina 6°. Nel segno di Prado la MX2
MXGP. Un grande Cairoli si aggiudica la qualifica in Svizzera. Prado in MX2

Frauenfeld - Il primo scontro della 16ª tappa iridata si è chiusa in favore di Tony Cairoli, che dopo il tira e molla nelle cronometrate con Jeffrey Herlings terminata per un soffio in favore dell’olandese si è riscattato siglando la manche di qualificazione.

Il nove volte iridato dopo una partenza in quarta posizione si è rimboccato le maniche scavalcando Max Anstie nel corso del secondo passaggio per poi mettersi in scia a Clement Desalle, che ha poi superato a metà mettendosi infine alla caccia di Tim Gajser a cui ha soffiato definitivamente il ruolo di battistrada a quattro tornate dal traguardo.

E Herlings? Il leader della classe regina ha studiato a lungo la prima curva che evidentemente non gli andava troppo a genio, e neanche a farlo apposta è stato il punto che lo ha visto cadere una volta abbassato il cancello. Ovviamente non si è perso d’animo, e dalle retrovie è rinvenuto come un razzo con un rush finale pazzesco che all’ultimo giro gli ha permesso di farsi beffa di Gajser, Seewer e Van Horebeek chiudendo la manche al sesto posto.

Alle spalle di Cairoli ha chiuso Romain Febvre, rinvenuto dalla 6ª posizione, seguito da Desalle, Anstie e Paulin, mentre Alex Lupino ha chiuso 13°.

La MX2 si è invece corsa all’insegna del capoclassifica Jorge Prado, nonostante la scivolata di cui è stato protagonista al 4° giro che ha permesso ad Hunter Lawrence di strappargli il ruolo di battistrada, ma il primato dell’australiano è durato poche tornate in quanto poi l’iberico è ritornato prepotentemente in testa al gruppo rimanendoci sino alla fine.
Lo hanno seguito al traguardo Lawrence, Thomas Covington e Pauls Jonass, che è riuscito a migliorare solo una posizione; bravo Michele Cervellin che si è piazzato 8°.

Continua invece la mesta stagione di Gianluca Facchetti, che nella prima manche EMX250, vinta dal neozelandese Dylan Walsh, non è riuscito a fare meglio di 16°, comunque miglior risultato azzurro.

Decisamente migliore il risultato nell’Europeo 125 del grintoso veneto del team Husqvarna Maddii racing Mattia Guadagnini, che nonostante la partenza a metà gruppo ha recuperato sino al 3° posto.

Prado, primo nelle qualifiche MX2
Prado, primo nelle qualifiche MX2

CLASSIFICA QUALIFICHE

MXGP - Qualifying Race - Classification

Pos Nr Rider Nat. Fed. Bike Time laps Diff. First Diff. Prev. Bestlaptime in lap Speed
1 222 Cairoli, Antonio ITA FMI KTM 24:46.322 12 0:00.000 0:00.000 1:52.818 3 52.6
2 461 Febvre, Romain FRA FFM Yamaha 24:49.801 12 0:03.479 0:03.479 1:52.591 8 52.7
3 25 Desalle, Clement BEL FMB Kawasaki 24:50.874 12 0:04.552 0:01.073 1:53.041 5 52.5
4 99 Anstie, Max GBR ACU Husqvarna 24:53.926 12 0:07.604 0:03.052 1:53.137 5 52.5
5 21 Paulin, Gautier FRA MCM Husqvarna 24:59.186 12 0:12.864 0:05.260 1:53.686 5 52.2
6 84 Herlings, Jeffrey NED KNMV KTM 25:01.000 12 0:14.678 0:01.814 1:52.648 10 52.7
7 243 Gajser, Tim SLO AMZS Honda 25:01.776 12 0:15.454 0:00.776 1:53.338 4 52.4
8 91 Seewer, Jeremy SUI FMS Yamaha 25:01.914 12 0:15.592 0:00.138 1:53.365 3 52.3
9 89 Van Horebeek, Jeremy BEL FMB Yamaha 25:10.631 12 0:24.309 0:08.717 1:53.741 5 52.2
10 100 Searle, Tommy GBR ACU Kawasaki 25:15.620 12 0:29.298 0:04.989 1:54.525 3 51.8
11 33 Lieber, Julien BEL FMB Kawasaki 25:16.388 12 0:30.066 0:00.768 1:55.112 5 51.6
12 777 Bobryshev, Evgeny RUS MFR Suzuki 25:22.025 12 0:35.703 0:05.637 1:54.333 7 51.9
13 77 Lupino, Alessandro ITA FMI Kawasaki 25:22.344 12 0:36.022 0:00.319 1:55.319 7 51.5
14 22 Strijbos, Kevin BEL FMB KTM 25:23.556 12 0:37.234 0:01.212 1:55.269 10 51.5
15 7 Leok, Tanel EST EMF Husqvarna 25:32.161 12 0:45.839 0:08.605 1:55.269 5 51.5
16 259 Coldenhoff, Glenn NED KNMV KTM 25:33.003 12 0:46.681 0:00.842 1:56.111 5 51.1
17 128 Monticelli, Ivo ITA FMI Yamaha 25:33.996 12 0:47.674 0:00.993 1:56.045 2 51.1
18 24 Simpson, Shaun GBR ACU Yamaha 25:34.518 12 0:48.196 0:00.522 1:54.823 8 51.7
19 55 Irwin, Graeme GBR MCUI KTM 25:45.031 12 0:58.709 0:10.513 1:56.694 7 50.9
20 92 Guillod, Valentin SUI FMS KTM 25:46.468 12 1:00.146 0:01.437 1:55.499 4 51.4
21 42 Waters, Todd AUS MA Honda 25:47.700 12 1:01.378 0:01.232 1:57.053 7 50.7
22 152 Petrov, Petar BUL BMF Honda 26:08.149 12 1:21.827 0:20.449 1:57.820 3 50.4
23 920 Valentin, Ander ESP RFME Husqvarna 26:09.141 12 1:22.819 0:00.992 1:56.736 5 50.8
24 82 Baumgartner, Andy SUI FMS KTM 26:18.866 12 1:32.544 0:09.725 1:58.044 5 50.3
25 62 Gercar, Klemen SLO AMZS Husqvarna 26:21.467 12 1:35.145 0:02.601 1:58.465 3 50.1
26 868 Docherty, Michael RSA UAEMC Husqvarna 26:33.255 12 1:46.933 0:11.788 1:57.320 5 50.6
27 93 Bengtsson, Jonathan SWE SVEMO KTM 26:42.415 12 1:56.093 0:09.160 2:00.386 3 49.3
28 501 Scheiwiller, Cyrill SUI FMS Yamaha 26:46.499 12 2:00.177 0:04.084 2:01.366 3 48.9
29 78 Furlato, Yves SUI FMS Husqvarna 27:08.265 12 2:21.943 0:21.766 2:01.566 3 48.8
30 707 Kappel, Robin FRA FFM Kawasaki 24:49.061 11 1 lap 1 lap 2:01.512 9 48.8
31 15 Bonini, Davide ITA FMI KTM 24:52.661 11 1 lap 0:03.600 2:00.740 3 49.1
32 83 Renkens, Nathan BEL FMB Honda 24:56.614 11 1 lap 0:03.953 2:00.209 4 49.4
33 80 Marini, Thomas SMR FSM Kawasaki 25:06.389 11 1 lap 0:09.775 2:01.988 4 48.6
34 710 Bender, Nicolas SUI FMS Husqvarna 25:07.159 11 1 lap 0:00.770 2:01.852 5 48.7
35 875 Schaffter, Kim SUI FMS Kawasaki 25:27.323 11 1 lap 0:20.164 2:02.992 4 48.2
36 817 Clermont, Jason FRA FFM Kawasaki 25:47.699 11 1 lap 0:20.376 2:01.165 3 49
37 224 Brugnoni, Alessandro ITA FMI KTM 26:42.145 11 1 lap 0:54.446 2:04.485 1 47.7

 

MX2 - Qualifying Race - Classification

Pos Nr Rider Nat. Fed. Bike Time laps Diff. First Diff. Prev. Bestlaptime in lap Speed
1 61 Prado, Jorge ESP RFME KTM 25:00.079 12 0:00.000 0:00.000 1:53.131 3 52.5
2 96 Lawrence, Hunter AUS MA Honda 25:01.865 12 0:01.786 0:01.786 1:53.905 5 52.1
3 64 Covington, Thomas USA MUL Husqvarna 25:08.611 12 0:08.532 0:06.746 1:53.911 3 52.1
4 1 Jonass, Pauls LAT LAMSF KTM 25:14.206 12 0:14.127 0:05.595 1:54.283 6 51.9
5 19 Olsen, Thomas Kjer DEN DMU Husqvarna 25:19.140 12 0:19.061 0:04.934 1:54.986 4 51.6
6 919 Watson, Ben GBR ACU Yamaha 25:25.153 12 0:25.074 0:06.013 1:55.964 10 51.2
7 10 Vlaanderen, Calvin NED KNMV Honda 25:36.220 12 0:36.141 0:11.067 1:55.656 4 51.3
8 747 Cervellin, Michele ITA FMI Yamaha 25:44.193 12 0:44.114 0:07.973 1:56.966 2 50.7
9 118 Rubini, Stephen FRA FFM KTM 25:48.531 12 0:48.452 0:04.338 1:57.263 2 50.6
10 56 Weltin, Marshal USA AMA Kawasaki 25:52.094 12 0:52.015 0:03.563 1:57.369 6 50.6
11 127 Rodriguez, Anthony VEN FMV Yamaha 25:59.762 12 0:59.683 0:07.668 1:56.521 3 50.9
12 98 Vaessen, Bas NED KNMV Honda 26:02.269 12 1:02.190 0:02.507 1:58.685 6 50
13 29 Jacobi, Henry GER DMSB Husqvarna 26:06.191 12 1:06.112 0:03.922 1:57.985 8 50.3
14 34 De Waal, Micha-Boy NED KNMV Honda 26:07.674 12 1:07.595 0:01.483 1:58.560 4 50.1
15 891 Pessoa, Gustavo BRA CBM Kawasaki 26:14.858 12 1:14.779 0:07.184 1:58.644 8 50
16 172 Van doninck, Brent BEL FMB Husqvarna 26:19.057 12 1:18.978 0:04.199 1:58.557 9 50.1
17 297 Gole, Anton SWE SVEMO Yamaha 26:24.689 12 1:24.610 0:05.632 1:59.816 9 49.5
18 52 Malaval, Adrien FRA FFM KTM 26:28.421 12 1:28.342 0:03.732 2:00.628 3 49.2
19 95 Furlotti, Simone ITA FMI Yamaha 26:29.844 12 1:29.765 0:01.423 2:00.142 7 49.4
20 44 Lesiardo, Morgan ITA FMI KTM 26:34.398 12 1:34.319 0:04.554 1:59.863 7 49.5
21 321 Bernardini, Samuele ITA FMI Yamaha 26:39.503 12 1:39.424 0:05.105 1:59.657 5 49.6
22 226 Koch, Tom GER DMSB KTM 26:40.771 12 1:40.692 0:01.268 2:00.106 6 49.4
23 75 Roosiorg, Hardi EST EMF KTM 26:42.908 12 1:42.829 0:02.137 2:00.545 6 49.2
24 485 Savaste, Kim FIN DMSB KTM 26:47.797 12 1:47.718 0:04.889 2:00.231 6 49.4
25 102 Sikyna, Richard SVK SMF KTM 26:49.822 12 1:49.743 0:02.025 2:00.878 6 49.1
26 931 Zanotti, Andrea SMR FSM Husqvarna 27:00.397 12 2:00.318 0:10.575 2:01.380 3 48.9
27 949 Contessi, Alessandro SUI FMS Kawasaki 25:19.691 11 1 lap 1 lap 2:03.907 3 47.9
28 331 Freidig, Loris SUI FMS Husqvarna 25:21.754 11 1 lap 0:02.063 2:04.723 3 47.6
29 377 Krc, Martin CZE ACCR KTM 25:27.114 11 1 lap 0:05.360 2:03.353 2 48.1
30 79 Zurbrugg, Cyril SUI FMS Yamaha 26:31.796 11 1 lap 1:04.682 2:08.296 2 46.2
31 312 Casas, Oriol ESP RFME Honda 20:37.591 9 3 laps 2 laps 2:00.702 6 49.2
32 101 Pichon, Zachary FRA FFM KTM 8:58.363 3 9 laps 6 laps 2:01.453 2 48.9
33 193 Geerts, Jago BEL FMB Yamaha 2:08.157 0 12 laps 3 laps 0:00.000   0
Mattia Guadagnini
Mattia Guadagnini
  • IlDuca690R, Settimo Milanese (MI)

    Daje tony che potresti farcela

    Forse l'alineno e stanco

    O forse si nasconde e fa l'ufo in gara

    Bah speriamo

    Vaiiii tonyyyyyyyy
Inserisci il tuo commento